Time,TemperatureF,DewpointF,PressureIn,WindDirection,WindDirectionDegrees,WindSpeedMPH,WindSpeedGustMPH,Humidity,HourlyPrecipIn,Conditions,Clouds,dailyrainin,SoftwareType,DateUTC
2013-01-23 00:03:00,58.0,47.0,30.19,NE,43,2.0,4.0,67,0.00,,,0.00,,2013-01-23 06:03:00,
2013-01-23 00:12:00,58.0,47.0,30.19,NE,43,2.0,4.0,67,0.00,,,0.00,,2013-01-23 06:12:00,
2013-01-23 00:22:00,58.0,47.0,30.19,NNE,26,3.0,5.0,67,0.00,,,0.00,,2013-01-23 06:22:00,
2013-01-23 00:33:00,57.0,47.0,30.19,North,5,2.0,5.0,68,0.00,,,0.00,,2013-01-23 06:33:00,
2013-01-23 00:43:00,57.0,47.0,30.19,North,5,2.0,5.0,68,0.00,,,0.00,,2013-01-23 06:43:00,
2013-01-23 00:52:00,57.0,47.0,30.19,ENE,62,1.0,2.0,69,0.00,,,0.00,,2013-01-23 06:52:00,
2013-01-23 01:02:00,57.0,47.0,30.19,ENE,62,2.0,4.0,68,0.00,,,0.00,,2013-01-23 07:02:00,
2013-01-23 01:12:00,57.0,47.0,30.19,ENE,62,2.0,4.0,68,0.00,,,0.00,,2013-01-23 07:12:00,
2013-01-23 01:22:00,57.0,47.0,30.19,NNE,16,2.0,3.0,68,0.00,,,0.00,,2013-01-23 07:22:00,
2013-01-23 01:33:00,58.0,47.0,30.18,NNE,29,1.0,3.0,68,0.00,,,0.00,,2013-01-23 07:33:00,
2013-01-23 01:42:00,58.0,47.0,30.18,NNE,29,1.0,3.0,68,0.00,,,0.00,,2013-01-23 07:42:00,
2013-01-23 01:52:00,58.0,48.0,30.19,NE,50,2.0,3.0,69,0.00,,,0.00,,2013-01-23 07:52:00,
2013-01-23 02:02:00,58.0,48.0,30.19,NE,48,1.0,3.0,69,0.00,,,0.00,,2013-01-23 08:02:00,
2013-01-23 02:13:00,58.0,48.0,30.19,NE,48,1.0,3.0,69,0.00,,,0.00,,2013-01-23 08:13:00,
2013-01-23 02:23:00,58.0,48.0,30.19,ENE,64,1.0,3.0,69,0.00,,,0.00,,2013-01-23 08:23:00,
2013-01-23 02:33:00,57.0,48.0,30.18,ENE,57,1.0,3.0,71,0.00,,,0.00,,2013-01-23 08:33:00,
2013-01-23 02:43:00,57.0,48.0,30.18,ENE,57,1.0,3.0,71,0.00,,,0.00,,2013-01-23 08:43:00,
2013-01-23 02:53:00,57.0,48.0,30.18,NE,52,1.0,4.0,72,0.00,,,0.00,,2013-01-23 08:53:00,
2013-01-23 03:03:00,57.0,48.0,30.19,NE,41,2.0,3.0,71,0.00,,,0.00,,2013-01-23 09:03:00,
2013-01-23 03:12:00,57.0,48.0,30.19,NE,41,2.0,3.0,71,0.00,,,0.00,,2013-01-23 09:12:00,
2013-01-23 03:22:00,57.0,48.0,30.19,NE,41,2.0,3.0,71,0.00,,,0.00,,2013-01-23 09:22:00,
2013-01-23 03:33:00,57.0,48.0,30.18,NE,54,1.0,3.0,72,0.00,,,0.00,,2013-01-23 09:33:00,
2013-01-23 03:43:00,57.0,48.0,30.18,NE,54,1.0,3.0,72,0.00,,,0.00,,2013-01-23 09:43:00,
2013-01-23 03:53:00,57.0,48.0,30.18,ENE,66,2.0,3.0,72,0.00,,,0.00,,2013-01-23 09:53:00,
2013-01-23 04:03:00,56.0,47.0,30.18,NE,47,1.0,3.0,73,0.00,,,0.00,,2013-01-23 10:03:00,
2013-01-23 04:12:00,56.0,47.0,30.18,NE,47,1.0,3.0,73,0.00,,,0.00,,2013-01-23 10:12:00,
2013-01-23 04:23:00,56.0,47.0,30.19,NE,45,3.0,5.0,73,0.00,,,0.00,,2013-01-23 10:23:00,
2013-01-23 04:33:00,56.0,47.0,30.19,ENE,62,1.0,4.0,73,0.00,,,0.00,,2013-01-23 10:33:00,
2013-01-23 04:43:00,56.0,47.0,30.19,ENE,62,1.0,4.0,73,0.00,,,0.00,,2013-01-23 10:43:00,
2013-01-23 04:52:00,56.0,47.0,30.19,NNE,23,3.0,3.0,73,0.00,,,0.00,,2013-01-23 10:52:00,
2013-01-23 05:03:00,56.0,47.0,30.19,NNE,15,1.0,3.0,73,0.00,,,0.00,,2013-01-23 11:03:00,
2013-01-23 05:12:00,56.0,47.0,30.19,NNE,15,1.0,3.0,73,0.00,,,0.00,,2013-01-23 11:12:00,
2013-01-23 05:23:00,56.0,47.0,30.20,North,9,3.0,3.0,73,0.00,,,0.00,,2013-01-23 11:23:00,
2013-01-23 05:34:00,56.0,47.0,30.22,NNE,24,2.0,3.0,73,0.00,,,0.00,,2013-01-23 11:34:00,
2013-01-23 05:43:00,56.0,47.0,30.22,NNE,24,2.0,3.0,73,0.00,,,0.00,,2013-01-23 11:43:00,
2013-01-23 05:53:00,56.0,47.0,30.21,NE,45,4.0,5.0,72,0.00,,,0.00,,2013-01-23 11:53:00,
2013-01-23 06:03:00,55.0,46.0,30.23,NNE,23,1.0,4.0,71,0.00,,,0.00,,2013-01-23 12:03:00,
2013-01-23 06:13:00,55.0,46.0,30.23,NNE,23,1.0,4.0,71,0.00,,,0.00,,2013-01-23 12:13:00,
2013-01-23 06:22:00,55.0,45.0,30.22,ENE,72,2.0,4.0,70,0.00,,,0.00,,2013-01-23 12:22:00,
2013-01-23 06:33:00,55.0,45.0,30.23,North,8,2.0,4.0,70,0.00,,,0.00,,2013-01-23 12:33:00,
2013-01-23 06:43:00,55.0,45.0,30.23,North,8,2.0,4.0,70,0.00,,,0.00,,2013-01-23 12:43:00,
2013-01-23 06:53:00,55.0,45.0,30.23,ENE,58,2.0,4.0,69,0.00,,,0.00,,2013-01-23 12:53:00,
2013-01-23 07:04:00,55.0,45.0,30.24,NE,43,2.0,4.0,68,0.00,,,0.00,,2013-01-23 13:04:00,
2013-01-23 07:13:00,55.0,45.0,30.24,NE,43,2.0,4.0,68,0.00,,,0.00,,2013-01-23 13:13:00,
2013-01-23 07:23:00,55.0,45.0,30.24,NE,36,3.0,6.0,68,0.00,,,0.00,,2013-01-23 13:23:00,
2013-01-23 07:33:00,55.0,44.0,30.25,East,101,1.0,4.0,67,0.00,,,0.00,,2013-01-23 13:33:00,
2013-01-23 07:42:00,55.0,44.0,30.25,East,101,1.0,4.0,67,0.00,,,0.00,,2013-01-23 13:42:00,
2013-01-23 07:52:00,56.0,45.0,30.26,ENE,61,3.0,7.0,66,0.00,,,0.00,,2013-01-23 13:52:00,
2013-01-23 08:03:00,57.0,45.0,30.26,NNE,30,2.0,4.0,64,0.00,,,0.00,,2013-01-23 14:03:00,
2013-01-23 08:12:00,57.0,45.0,30.26,NNE,30,2.0,4.0,64,0.00,,,0.00,,2013-01-23 14:12:00,
2013-01-23 08:23:00,57.0,45.0,30.26,NNE,30,2.0,4.0,64,0.00,,,0.00,,2013-01-23 14:23:00,
2013-01-23 08:33:00,58.0,45.0,30.27,ENE,63,2.0,4.0,63,0.00,,,0.00,,2013-01-23 14:33:00,
2013-01-23 08:43:00,58.0,45.0,30.27,ENE,63,2.0,4.0,63,0.00,,,0.00,,2013-01-23 14:43:00,
2013-01-23 08:53:00,58.0,45.0,30.27,NE,45,2.0,4.0,62,0.00,,,0.00,,2013-01-23 14:53:00,
2013-01-23 09:03:00,59.0,46.0,30.28,ENE,58,2.0,4.0,63,0.00,,,0.00,,2013-01-23 15:03:00,
2013-01-23 09:13:00,59.0,46.0,30.28,ENE,58,2.0,4.0,63,0.00,,,0.00,,2013-01-23 15:13:00,
2013-01-23 09:23:00,59.0,46.0,30.28,ENE,58,2.0,4.0,63,0.00,,,0.00,,2013-01-23 15:23:00,
2013-01-23 09:33:00,65.0,50.0,30.28,ENE,62,5.0,6.0,58,0.00,,,0.00,,2013-01-23 15:33:00,
2013-01-23 09:43:00,65.0,50.0,30.28,ENE,62,5.0,6.0,58,0.00,,,0.00,,2013-01-23 15:43:00,
2013-01-23 09:53:00,65.0,49.0,30.27,ENE,75,2.0,5.0,57,0.00,,,0.00,,2013-01-23 15:53:00,
2013-01-23 10:03:00,66.0,51.0,30.27,ENE,65,2.0,4.0,58,0.00,,,0.00,,2013-01-23 16:03:00,
2013-01-23 10:12:00,66.0,51.0,30.27,ENE,65,2.0,4.0,58,0.00,,,0.00,,2013-01-23 16:12:00,
2013-01-23 10:23:00,66.0,51.0,30.27,ENE,65,2.0,4.0,58,0.00,,,0.00,,2013-01-23 16:23:00,
2013-01-23 10:33:00,67.0,50.0,30.27,East,84,2.0,6.0,55,0.00,,,0.00,,2013-01-23 16:33:00,
2013-01-23 10:43:00,67.0,50.0,30.27,East,84,2.0,6.0,55,0.00,,,0.00,,2013-01-23 16:43:00,
2013-01-23 10:53:00,68.0,51.0,30.27,NE,37,3.0,5.0,54,0.00,,,0.00,,2013-01-23 16:53:00,
2013-01-23 11:03:00,68.0,51.0,30.26,NE,34,3.0,6.0,54,0.00,,,0.00,,2013-01-23 17:03:00,
2013-01-23 11:12:00,68.0,51.0,30.26,NE,34,3.0,6.0,54,0.00,,,0.00,,2013-01-23 17:12:00,
2013-01-23 11:23:00,70.0,53.0,30.26,NE,48,4.0,5.0,55,0.00,,,0.00,,2013-01-23 17:23:00,
2013-01-23 11:34:00,71.0,54.0,30.25,ENE,77,3.0,6.0,54,0.00,,,0.00,,2013-01-23 17:34:00,
2013-01-23 11:42:00,71.0,54.0,30.25,ENE,77,3.0,6.0,54,0.00,,,0.00,,2013-01-23 17:42:00,
2013-01-23 11:53:00,72.0,54.0,30.24,ENE,74,4.0,5.0,53,0.00,,,0.00,,2013-01-23 17:53:00,
2013-01-23 12:04:00,73.0,55.0,30.23,SW,235,2.0,8.0,53,0.00,,,0.00,,2013-01-23 18:04:00,
2013-01-23 12:12:00,73.0,55.0,30.23,SW,235,2.0,8.0,53,0.00,,,0.00,,2013-01-23 18:12:00,
2013-01-23 12:23:00,74.0,55.0,30.23,ENE,61,3.0,6.0,52,0.00,,,0.00,,2013-01-23 18:23:00,
2013-01-23 12:33:00,74.0,55.0,30.23,ENE,61,3.0,6.0,52,0.00,,,0.00,,2013-01-23 18:33:00,
2013-01-23 12:43:00,72.0,54.0,30.22,East,80,3.0,6.0,54,0.00,,,0.00,,2013-01-23 18:43:00,
2013-01-23 12:53:00,72.0,54.0,30.22,ENE,62,4.0,5.0,54,0.00,,,0.00,,2013-01-23 18:53:00,
2013-01-23 13:03:00,73.0,55.0,30.22,NE,55,2.0,5.0,54,0.00,,,0.00,,2013-01-23 19:03:00,
2013-01-23 13:13:00,73.0,55.0,30.22,NE,55,2.0,5.0,54,0.00,,,0.00,,2013-01-23 19:13:00,
2013-01-23 13:23:00,73.0,55.0,30.22,NE,55,2.0,5.0,54,0.00,,,0.00,,2013-01-23 19:23:00,
2013-01-23 13:33:00,74.0,55.0,30.20,ESE,107,4.0,6.0,51,0.00,,,0.00,,2013-01-23 19:33:00,
2013-01-23 13:43:00,74.0,55.0,30.20,ESE,107,4.0,6.0,51,0.00,,,0.00,,2013-01-23 19:43:00,
2013-01-23 13:53:00,74.0,55.0,30.20,ESE,107,4.0,6.0,51,0.00,,,0.00,,2013-01-23 19:53:00,
2013-01-23 14:03:00,76.0,56.0,30.19,East,92,2.0,6.0,50,0.00,,,0.00,,2013-01-23 20:03:00,
2013-01-23 14:13:00,76.0,56.0,30.19,East,92,2.0,6.0,50,0.00,,,0.00,,2013-01-23 20:13:00,
2013-01-23 14:23:00,75.0,55.0,30.19,East,82,4.0,7.0,49,0.00,,,0.00,,2013-01-23 20:23:00,
2013-01-23 14:33:00,76.0,54.0,30.19,East,90,4.0,5.0,47,0.00,,,0.00,,2013-01-23 20:33:00,
2013-01-23 14:43:00,76.0,54.0,30.19,East,90,4.0,5.0,47,0.00,,,0.00,,2013-01-23 20:43:00,
2013-01-23 14:53:00,75.0,54.0,30.19,East,88,2.0,5.0,48,0.00,,,0.00,,2013-01-23 20:53:00,
2013-01-23 15:03:00,75.0,54.0,30.19,NNE,30,4.0,5.0,48,0.00,,,0.00,,2013-01-23 21:03:00,
2013-01-23 15:12:00,75.0,54.0,30.19,NNE,30,4.0,5.0,48,0.00,,,0.00,,2013-01-23 21:12:00,
2013-01-23 15:23:00,75.0,54.0,30.19,ENE,67,4.0,5.0,48,0.00,,,0.00,,2013-01-23 21:23:00,
2013-01-23 15:33:00,74.0,55.0,30.20,East,87,3.0,5.0,51,0.00,,,0.00,,2013-01-23 21:33:00,
2013-01-23 15:43:00,74.0,55.0,30.20,East,87,3.0,5.0,51,0.00,,,0.00,,2013-01-23 21:43:00,
2013-01-23 15:52:00,74.0,54.0,30.20,ENE,77,3.0,6.0,49,0.00,,,0.00,,2013-01-23 21:52:00,
2013-01-23 16:03:00,74.0,54.0,30.20,NE,55,3.0,5.0,49,0.00,,,0.00,,2013-01-23 22:03:00,
2013-01-23 16:12:00,74.0,54.0,30.20,NE,55,3.0,5.0,49,0.00,,,0.00,,2013-01-23 22:12:00,
2013-01-23 16:23:00,74.0,54.0,30.20,ENE,68,3.0,4.0,50,0.00,,,0.00,,2013-01-23 22:23:00,
2013-01-23 16:33:00,72.0,53.0,30.21,ENE,59,2.0,4.0,51,0.00,,,0.00,,2013-01-23 22:33:00,
2013-01-23 16:42:00,72.0,53.0,30.21,ENE,59,2.0,4.0,51,0.00,,,0.00,,2013-01-23 22:42:00,
2013-01-23 16:53:00,71.0,52.0,30.21,NE,45,1.0,4.0,51,0.00,,,0.00,,2013-01-23 22:53:00,
2013-01-23 17:03:00,71.0,52.0,30.21,NE,45,1.0,4.0,51,0.00,,,0.00,,2013-01-23 23:03:00,
2013-01-23 17:13:00,71.0,52.0,30.21,NE,45,1.0,4.0,51,0.00,,,0.00,,2013-01-23 23:13:00,
2013-01-23 17:23:00,67.0,50.0,30.22,NE,45,0.0,0.0,54,0.00,,,0.00,,2013-01-23 23:23:00,
2013-01-23 17:33:00,66.0,50.0,30.21,NE,45,0.0,0.0,56,0.00,,,0.00,,2013-01-23 23:33:00,
2013-01-23 17:43:00,66.0,50.0,30.21,NE,45,0.0,0.0,56,0.00,,,0.00,,2013-01-23 23:43:00,
2013-01-23 17:53:00,64.0,49.0,30.22,NE,45,0.0,0.0,59,0.00,,,0.00,,2013-01-23 23:53:00,
2013-01-23 18:03:00,63.0,49.0,30.22,NE,45,0.0,0.0,61,0.00,,,0.00,,2013-01-24 00:03:00,
2013-01-23 18:12:00,63.0,49.0,30.22,NE,45,0.0,0.0,61,0.00,,,0.00,,2013-01-24 00:12:00,
2013-01-23 18:22:00,62.0,49.0,30.22,NE,45,0.0,0.0,63,0.00,,,0.00,,2013-01-24 00:22:00,
2013-01-23 18:32:00,61.0,49.0,30.23,NE,45,0.0,0.0,64,0.00,,,0.00,,2013-01-24 00:32:00,
2013-01-23 18:43:00,61.0,49.0,30.23,NE,45,0.0,0.0,64,0.00,,,0.00,,2013-01-24 00:43:00,
2013-01-23 18:53:00,60.0,48.0,30.23,NE,45,0.0,0.0,65,0.00,,,0.00,,2013-01-24 00:53:00,
2013-01-23 19:03:00,60.0,48.0,30.23,NE,45,0.0,0.0,65,0.00,,,0.00,,2013-01-24 01:03:00,
2013-01-23 19:12:00,60.0,48.0,30.23,NE,45,0.0,0.0,65,0.00,,,0.00,,2013-01-24 01:12:00,
2013-01-23 19:23:00,60.0,48.0,30.24,NE,45,0.0,0.0,65,0.00,,,0.00,,2013-01-24 01:23:00,
2013-01-23 19:33:00,60.0,48.0,30.24,NE,45,1.0,1.0,65,0.00,,,0.00,,2013-01-24 01:33:00,
2013-01-23 19:42:00,60.0,48.0,30.24,NE,45,1.0,1.0,65,0.00,,,0.00,,2013-01-24 01:42:00,
2013-01-23 19:53:00,59.0,48.0,30.25,NE,45,0.0,0.0,66,0.00,,,0.00,,2013-01-24 01:53:00,
2013-01-23 20:02:00,59.0,48.0,30.25,NE,45,0.0,1.0,66,0.00,,,0.00,,2013-01-24 02:02:00,
2013-01-23 20:12:00,59.0,48.0,30.25,NE,45,0.0,1.0,66,0.00,,,0.00,,2013-01-24 02:12:00,
2013-01-23 20:22:00,59.0,48.0,30.25,NNE,23,0.0,1.0,66,0.00,,,0.00,,2013-01-24 02:22:00,
2013-01-23 20:33:00,59.0,48.0,30.26,NNE,23,0.0,0.0,66,0.00,,,0.00,,2013-01-24 02:33:00,
2013-01-23 20:42:00,59.0,48.0,30.26,NNE,23,0.0,0.0,66,0.00,,,0.00,,2013-01-24 02:42:00,
2013-01-23 20:52:00,59.0,48.0,30.26,NNE,23,0.0,0.0,66,0.00,,,0.00,,2013-01-24 02:52:00,
2013-01-23 21:02:00,60.0,48.0,30.26,NE,56,1.0,2.0,65,0.00,,,0.00,,2013-01-24 03:02:00,
2013-01-23 21:12:00,60.0,48.0,30.26,NE,56,1.0,2.0,65,0.00,,,0.00,,2013-01-24 03:12:00,
2013-01-23 21:22:00,60.0,48.0,30.26,NNE,23,1.0,2.0,65,0.00,,,0.00,,2013-01-24 03:22:00,
2013-01-23 21:33:00,59.0,47.0,30.26,NE,45,1.0,1.0,64,0.00,,,0.00,,2013-01-24 03:33:00,
2013-01-23 21:43:00,59.0,47.0,30.26,NE,45,1.0,1.0,64,0.00,,,0.00,,2013-01-24 03:43:00,
2013-01-23 21:52:00,59.0,47.0,30.26,NE,45,1.0,1.0,64,0.00,,,0.00,,2013-01-24 03:52:00,
2013-01-23 22:03:00,59.0,47.0,30.26,NE,45,1.0,1.0,64,0.00,,,0.00,,2013-01-24 04:03:00,
2013-01-23 22:12:00,59.0,47.0,30.26,NE,45,1.0,1.0,64,0.00,,,0.00,,2013-01-24 04:12:00,
2013-01-23 22:22:00,58.0,47.0,30.25,NNE,15,1.0,2.0,67,0.00,,,0.00,,2013-01-24 04:22:00,
2013-01-23 22:33:00,58.0,47.0,30.25,NE,38,0.0,1.0,67,0.00,,,0.00,,2013-01-24 04:33:00,
2013-01-23 22:43:00,58.0,47.0,30.25,NE,38,0.0,1.0,67,0.00,,,0.00,,2013-01-24 04:43:00,
2013-01-23 22:52:00,57.0,47.0,30.25,NE,56,1.0,1.0,68,0.00,,,0.00,,2013-01-24 04:52:00,
2013-01-23 23:03:00,57.0,47.0,30.24,East,79,1.0,1.0,68,0.00,,,0.00,,2013-01-24 05:03:00,
2013-01-23 23:12:00,57.0,47.0,30.24,East,79,1.0,1.0,68,0.00,,,0.00,,2013-01-24 05:12:00,
2013-01-23 23:22:00,56.0,46.0,30.24,NE,45,0.0,2.0,70,0.00,,,0.00,,2013-01-24 05:22:00,
2013-01-23 23:33:00,56.0,47.0,30.24,ENE,68,0.0,0.0,71,0.00,,,0.00,,2013-01-24 05:33:00,
2013-01-23 23:43:00,56.0,47.0,30.24,ENE,68,0.0,0.0,71,0.00,,,0.00,,2013-01-24 05:43:00,
2013-01-23 23:53:00,55.0,47.0,30.24,ENE,68,1.0,1.0,73,0.00,,,0.00,,2013-01-24 05:53:00,